Havana, AR

10:22 AM CDT on July 28, 2014 (GMT -0500)
Booneville Municipal Airport (KARBOONE1) Elev 460 ft | 35.15 °N, 93.86 °W | Change Station

Current weather conditions updated 19 minutes ago

Clear
Clear
78.6 °F
Feels Like 80 °F
N
0.0
Wind Variable Wind from NNE
Gusts 8.0 mph

Today is forecast to be Cooler than yesterday.

Today
High -- | Low -- °F
--% Chance of Precip.
Yesterday
High -- | Low -- °F
Precip. -- in
6:20 AM 8:20 PM
Waxing Crescent, 3% visible
Pressure 30.14 in
Visibility 10.0 miles
Clouds Clear
Heat Index 80 °F
Dew Point 65 °F
Humidity 63%
Rainfall 0.00 in
Snow Depth Not available.
UV 5 out of 12
Pollen 5.30 out of 12
Air Quality Not available.
Flu Activity Not available.
METAR KRUE 281453Z AUTO VRB04KT 10SM CLR 26/17 A3016 RMK AO2 SLP204 T02610167 52016

More Conditions Fewer Conditions

Pressure 30.14 in
Visibility 10.0 miles
Clouds Clear
Heat Index 80 °F
Dew Point 65 °F
Humidity 63%
Rainfall 0.00 in
Snow Depth Not available.
UV 5 out of 12
Pollen 5.30 out of 12
Air Quality Not available.
Flu Activity Not available.
METAR KRUE 281453Z AUTO VRB04KT 10SM CLR 26/17 A3016 RMK AO2 SLP204 T02610167 52016

More Conditions Fewer Conditions

10-Day Weather Forecast

Almanac

Astronomy

Jul. 28, 2014 Rise Set
Actual Time 6:20 AM CDT 8:20 PM CDT
Civil Twilight 5:52 AM CDT 8:48 PM CDT
Nautical Twilight 5:18 AM CDT 9:22 PM CDT
Astronomical Twilight 4:41 AM CDT 9:59 PM CDT
Moon 7:56 AM CDT 9:09 PM CDT
Length of Visible Light 14h 56m
Length of Day
14h 00m
Tomorrow will be 1m 34s shorter.
Waxing Crescent, 3% of the Moon is Illuminated
Today
Waxing Crescent
Aug 3
First Quarter
Aug 10
Full
Aug 17
Last Quarter
Aug 25
New

Today's Extremes

State Highs State Lows

Community

WunderPhotos

Upload Photos

1,738,384 photos uploaded!

Nearby

Snow Depth

Station Depth Elevation
No new snow has been reported.

Earthquake Activity

City Distance Mag. Time & Date
No recent earthquake activity has been reported nearby.
Minimum magnitude displayed is 2.5.

Coastal Water Temperatures

Place Temperature
No Stations Reporting

Nearby Weather Stations

Station Location Temp. Heat Index Dew Point Humidity Wind Precip. Elev Updated Type
Booneville Municipal Airport, Booneville, AR 78.6 °F 80 °F 65 °F 63% NNE  at  0.0 mph 0.00 in / hr 460 ft 10:03 AM CDT Normal
RAWS BOONEVILLE AR, Booneville, AR 79 °F 82 °F 73 °F 83% NNE  at  3 mph 0.00 in / hr 342 ft 9:02 AM CDT MADIS
MesoWest HOYT , Hartman, AR 70 °F - - - North  at  - 0.00 in / hr 367 ft 8:55 AM CDT MADIS
MesoWest KNOXVL , Knoxville, AR 73 °F 71 °F - - North  at  - 0.00 in / hr 394 ft 9:10 AM CDT MADIS
APRSWXNET Dardanelle AR , Centerville, AR 73 °F 75 °F 63 °F 70% South  at  5 mph 0.00 in / hr 1850 ft 9:08 AM CDT MADIS

Show More Stations Show Fewer Stations